Time;durP1;ratioP1;P1;durP2;ratioP2;P2;SDS_P1;SDS_P2;PMS_P1;PMS_P2;Temp;Humidity;BMP_temperature;BMP_pressure;BME280_temperature;BME280_humidity;BME280_pressure;Samples;Min_cycle;Max_cycle;Signal;HPM_P1;HPM_P2
2024/03/17 00:00:43;;;;;;;29.07;15.90;;;;;;;7.51;100.00;100907.22;124154;1099;104169;-79
2024/03/17 00:03:34;;;;;;;29.23;15.53;;;;;;;7.52;100.00;100909.92;124149;1099;104222;-80
2024/03/17 00:06:06;;;;;;;29.63;15.47;;;;;;;7.52;100.00;100909.03;124183;1099;104419;-79
2024/03/17 00:08:37;;;;;;;29.27;15.93;;;;;;;7.50;100.00;100916.78;124148;1099;104337;-80
2024/03/17 00:11:08;;;;;;;32.40;16.93;;;;;;;7.48;100.00;100900.14;124079;1099;104367;-81
2024/03/17 00:13:40;;;;;;;29.70;16.23;;;;;;;7.51;100.00;100902.00;124153;1099;104223;-79
2024/03/17 00:16:12;;;;;;;33.57;16.87;;;;;;;7.52;100.00;100906.42;124171;1099;104217;-80
2024/03/17 00:18:44;;;;;;;32.03;17.03;;;;;;;7.48;100.00;100897.53;124237;1099;104268;-80
2024/03/17 00:21:15;;;;;;;33.25;17.30;;;;;;;7.42;100.00;100898.89;124355;1099;104241;-80
2024/03/17 00:23:46;;;;;;;32.07;15.80;;;;;;;7.37;100.00;100894.34;124437;1099;104277;-81
2024/03/17 00:26:19;;;;;;;28.83;14.97;;;;;;;7.35;100.00;100897.66;124342;1099;104344;-80
2024/03/17 00:28:51;;;;;;;29.63;15.73;;;;;;;7.34;100.00;100898.50;124190;1098;104264;-80
2024/03/17 00:31:23;;;;;;;28.97;15.23;;;;;;;7.34;100.00;100894.17;124140;1099;104265;-80
2024/03/17 00:33:55;;;;;;;28.73;15.07;;;;;;;7.37;100.00;100893.45;124110;1099;104617;-78
2024/03/17 00:36:27;;;;;;;29.63;15.70;;;;;;;7.37;100.00;100898.67;124033;1099;104782;-79
2024/03/17 00:38:58;;;;;;;30.63;15.30;;;;;;;7.40;100.00;100893.58;124148;1099;104341;-79
2024/03/17 00:41:29;;;;;;;28.83;15.03;;;;;;;7.42;100.00;100885.83;124292;1099;104270;-80
2024/03/17 00:44:02;;;;;;;32.63;15.80;;;;;;;7.42;100.00;100891.05;124219;1099;104270;-79
2024/03/17 00:46:34;;;;;;;30.03;15.40;;;;;;;7.45;100.00;100893.84;124224;1099;104297;-78
2024/03/17 00:49:05;;;;;;;29.30;14.43;;;;;;;7.46;100.00;100890.42;124169;1099;104271;-80
2024/03/17 00:51:37;;;;;;;31.10;15.70;;;;;;;7.44;100.00;100887.72;124380;1099;104243;-81
2024/03/17 00:54:08;;;;;;;31.10;15.93;;;;;;;7.40;100.00;100885.75;124135;1098;104245;-81
2024/03/17 00:56:39;;;;;;;29.23;15.27;;;;;;;7.37;100.00;100877.78;124155;1099;104320;-80
2024/03/17 00:59:11;;;;;;;29.80;15.73;;;;;;;7.35;100.00;100879.39;124340;1099;104238;-81
2024/03/17 01:01:43;;;;;;;29.27;15.13;;;;;;;7.31;100.00;100877.45;124366;1099;104220;-79
2024/03/17 01:04:15;;;;;;;28.30;14.90;;;;;;;7.33;100.00;100870.59;124127;1099;104265;-79
2024/03/17 01:06:46;;;;;;;30.80;15.47;;;;;;;7.33;100.00;100871.47;124158;1099;104220;-80
2024/03/17 01:09:17;;;;;;;29.27;14.90;;;;;;;7.36;100.00;100870.75;124092;1099;104386;-79
2024/03/17 01:11:48;;;;;;;29.73;14.97;;;;;;;7.37;100.00;100862.12;124077;1099;104361;-80
2024/03/17 01:14:19;;;;;;;28.57;15.53;;;;;;;7.35;100.00;100859.42;124265;1099;104217;-80
2024/03/17 01:16:53;;;;;;;30.30;14.55;;;;;;;7.34;100.00;100854.13;123889;1099;104325;-80
2024/03/17 01:19:25;;;;;;;30.75;15.15;;;;;;;7.31;100.00;100856.56;123935;1099;104696;-80
2024/03/17 01:21:56;;;;;;;32.07;15.97;;;;;;;7.30;100.00;100859.98;124193;1099;104441;-81
2024/03/17 01:24:31;;;;;;;28.70;14.58;;;;;;;7.28;100.00;100859.89;124226;1099;104236;-81
2024/03/17 01:27:02;;;;;;;30.10;14.83;;;;;;;7.25;100.00;100867.55;123905;1099;104265;-79
2024/03/17 01:29:33;;;;;;;31.80;15.97;;;;;;;7.26;100.00;100863.22;124231;1099;104339;-81
2024/03/17 01:32:05;;;;;;;31.30;16.43;;;;;;;7.26;100.00;100864.14;124345;1099;104226;-79
2024/03/17 01:34:37;;;;;;;31.07;15.77;;;;;;;7.26;100.00;100860.61;124189;1099;104309;-80
2024/03/17 01:37:10;;;;;;;33.10;16.10;;;;;;;7.27;100.00;100862.42;124172;1098;104262;-80
2024/03/17 01:39:41;;;;;;;30.87;15.70;;;;;;;7.27;100.00;100854.59;124368;1099;104342;-80
2024/03/17 01:42:12;;;;;;;31.73;15.97;;;;;;;7.27;100.00;100854.59;124160;1099;104307;-79
2024/03/17 01:44:44;;;;;;;31.00;15.73;;;;;;;7.28;100.00;100854.67;124104;1099;104341;-80
2024/03/17 01:47:18;;;;;;;31.07;15.57;;;;;;;7.32;100.00;100855.73;124070;1099;104441;-80
2024/03/17 01:49:50;;;;;;;30.43;15.03;;;;;;;7.33;100.00;100860.14;124031;1098;105914;-81
2024/03/17 01:52:24;;;;;;;28.07;15.40;;;;;;;7.33;100.00;100857.53;124180;1099;104222;-79
2024/03/17 01:54:55;;;;;;;30.60;15.72;;;;;;;7.34;100.00;100860.23;124149;1099;104204;-79
2024/03/17 01:57:27;;;;;;;32.73;16.50;;;;;;;7.36;100.00;100860.31;124089;1098;104293;-80
2024/03/17 01:59:59;;;;;;;31.57;15.70;;;;;;;7.36;100.00;100855.98;123955;1099;104239;-81
2024/03/17 02:02:31;;;;;;;31.77;15.40;;;;;;;7.35;100.00;100848.06;124223;1099;104296;-79
2024/03/17 02:05:03;;;;;;;30.57;14.77;;;;;;;7.37;100.00;100849.06;124273;1099;104242;-79
2024/03/17 02:07:34;;;;;;;32.53;16.03;;;;;;;7.37;100.00;100852.56;124274;1099;104277;-78
2024/03/17 02:10:08;;;;;;;28.40;14.87;;;;;;;7.41;100.00;100856.23;124264;1099;104248;-79
2024/03/17 02:12:38;;;;;;;;;;;;;;;7.41;100.00;100848.39;125188;1098;104648;-78
2024/03/17 02:15:10;;;;;;;30.57;15.53;;;;;;;7.40;100.00;100843.09;124282;1099;104328;-78
2024/03/17 02:17:41;;;;;;;31.63;16.73;;;;;;;7.40;100.00;100843.97;124496;1099;104227;-79
2024/03/17 02:20:14;;;;;;;30.60;16.10;;;;;;;7.43;100.00;100841.53;124260;1099;104238;-78
2024/03/17 02:22:45;;;;;;;32.07;15.83;;;;;;;7.44;100.00;100843.34;123976;1099;104270;-80
2024/03/17 02:25:16;;;;;;;32.13;16.40;;;;;;;7.42;100.00;100839.76;124157;1099;104702;-78
2024/03/17 02:27:47;;;;;;;32.43;16.63;;;;;;;7.41;100.00;100839.67;124087;1099;104322;-78
2024/03/17 02:30:18;;;;;;;32.13;16.90;;;;;;;7.41;100.00;100842.28;124037;1099;104271;-79
2024/03/17 02:32:56;;;;;;;31.03;16.60;;;;;;;7.42;100.00;100837.14;123996;1099;104730;-79
2024/03/17 02:35:27;;;;;;;34.20;17.97;;;;;;;7.44;100.00;100839.84;124053;1099;104270;-78
2024/03/17 02:37:58;;;;;;;32.90;17.73;;;;;;;7.44;100.00;100838.12;124029;1098;104306;-79
2024/03/17 02:40:30;;;;;;;34.67;17.77;;;;;;;7.44;100.00;100838.12;123975;1099;104784;-78
2024/03/17 02:43:01;;;;;;;32.60;17.37;;;;;;;7.43;100.00;100836.31;124166;1099;104801;-79
2024/03/17 02:45:32;;;;;;;32.73;17.70;;;;;;;7.40;100.00;100838.75;124142;1099;104322;-79
2024/03/17 02:48:03;;;;;;;37.00;17.87;;;;;;;7.40;100.00;100830.92;124132;1099;104290;-79
2024/03/17 02:50:36;;;;;;;33.90;17.67;;;;;;;7.39;100.00;100834.38;124047;1099;104383;-79
2024/03/17 02:53:08;;;;;;;;;;;;;;;7.39;100.00;100826.54;124272;1099;104217;-80
2024/03/17 02:55:39;;;;;;;35.30;18.33;;;;;;;7.33;100.00;100832.31;124238;1099;104268;-80
2024/03/17 02:58:11;;;;;;;34.47;17.77;;;;;;;7.31;100.00;100830.45;124241;1099;104294;-80
2024/03/17 03:00:42;;;;;;;34.73;18.10;;;;;;;7.31;100.00;100830.45;124090;1099;104239;-80
2024/03/17 03:03:13;;;;;;;37.27;18.87;;;;;;;7.28;100.00;100825.07;124297;1099;104463;-81
2024/03/17 03:05:45;;;;;;;35.70;17.83;;;;;;;7.24;100.00;100813.55;124274;1099;104942;-80
2024/03/17 03:08:16;;;;;;;36.50;19.00;;;;;;;7.23;100.00;100821.29;124184;1099;104287;-80
2024/03/17 03:10:48;;;;;;;35.13;18.80;;;;;;;7.24;100.00;100823.09;124203;1099;104708;-80
2024/03/17 03:13:21;;;;;;;33.73;17.47;;;;;;;7.25;100.00;100820.57;123893;1099;104297;-80
2024/03/17 03:15:52;;;;;;;39.83;19.83;;;;;;;7.25;100.00;100817.08;124278;1099;104222;-80
2024/03/17 03:18:24;;;;;;;38.37;19.20;;;;;;;7.26;100.00;100821.45;124154;1099;104383;-80
2024/03/17 03:20:55;;;;;;;37.57;19.47;;;;;;;7.24;100.00;100815.27;124297;1099;104236;-81
2024/03/17 03:23:27;;;;;;;34.83;17.27;;;;;;;7.22;100.00;100816.91;124225;1099;104271;-80
2024/03/17 03:26:03;;;;;;;36.70;18.60;;;;;;;7.19;100.00;100815.91;124302;1099;104239;-79
2024/03/17 03:28:36;;;;;;;39.37;20.13;;;;;;;7.20;100.00;100820.32;124273;1099;104281;-80
2024/03/17 03:31:13;;;;;;;36.93;19.00;;;;;;;7.23;100.00;100829.13;124034;1099;104322;-80
2024/03/17 03:33:44;;;;;;;35.17;17.80;;;;;;;7.24;100.00;100828.31;124790;1099;104267;-81
2024/03/17 03:36:17;;;;;;;35.50;18.90;;;;;;;7.22;100.00;100824.73;124395;1099;104235;-80
2024/03/17 03:38:49;;;;;;;36.90;18.53;;;;;;;7.22;100.00;100822.12;124314;1099;104255;-80
2024/03/17 03:41:20;;;;;;;33.93;17.63;;;;;;;7.24;100.00;100826.59;124162;1099;104331;-80
2024/03/17 03:43:52;;;;;;;37.27;18.87;;;;;;;7.26;100.00;100824.98;124191;1099;104300;-79
2024/03/17 03:46:23;;;;;;;35.37;18.20;;;;;;;7.29;100.00;100821.62;124253;1098;104162;-79
2024/03/17 03:48:55;;;;;;;36.30;18.40;;;;;;;7.31;100.00;100825.23;124265;1099;104391;-80
2024/03/17 03:51:26;;;;;;;36.17;18.57;;;;;;;7.29;100.00;100822.55;124235;1099;104422;-79
2024/03/17 03:53:57;;;;;;;38.20;20.20;;;;;;;7.27;100.00;100824.16;124453;1099;104272;-80
2024/03/17 03:56:29;;;;;;;38.63;19.47;;;;;;;7.24;100.00;100821.38;124146;1099;104270;-79
2024/03/17 03:59:00;;;;;;;36.30;19.05;;;;;;;7.26;100.00;100827.59;124377;1099;104238;-80
2024/03/17 04:01:32;;;;;;;37.77;19.43;;;;;;;7.26;100.00;100821.45;124278;1099;104277;-81
2024/03/17 04:04:03;;;;;;;39.00;19.40;;;;;;;7.24;100.00;100823.09;124297;1099;104159;-80
2024/03/17 04:06:37;;;;;;;40.87;19.47;;;;;;;7.21;100.00;100829.03;124384;1099;104262;-80
2024/03/17 04:09:09;;;;;;;35.30;18.73;;;;;;;7.19;100.00;100833.28;124233;1099;104236;-80
2024/03/17 04:11:40;;;;;;;37.15;19.40;;;;;;;7.16;100.00;100831.39;124297;1099;104238;-78
2024/03/17 04:14:11;;;;;;;34.27;18.10;;;;;;;7.16;100.00;100836.62;124032;1099;104248;-79
2024/03/17 04:16:42;;;;;;;35.10;17.57;;;;;;;7.17;100.00;100838.42;124144;1099;104268;-79
2024/03/17 04:19:16;;;;;;;36.43;17.97;;;;;;;7.22;100.00;100845.62;124258;1099;104219;-80
2024/03/17 04:21:46;;;;;;;;;;;;;;;7.20;100.00;100841.20;124165;1099;104229;-80
2024/03/17 04:24:18;;;;;;;35.37;17.70;;;;;;;7.18;100.00;100839.31;124153;1099;104284;-81
2024/03/17 04:26:49;;;;;;;35.50;17.97;;;;;;;7.17;100.00;100834.92;124064;1099;104743;-79
2024/03/17 04:29:21;;;;;;;31.77;16.60;;;;;;;7.17;100.00;100841.03;124178;1099;104259;-79
2024/03/17 04:31:52;;;;;;;36.63;18.63;;;;;;;7.16;100.00;100841.83;124184;1099;104278;-79
2024/03/17 04:34:24;;;;;;;34.87;18.00;;;;;;;7.17;100.00;100842.76;124120;1099;104264;-79
2024/03/17 04:36:55;;;;;;;35.47;17.77;;;;;;;7.19;100.00;100841.12;124111;1098;102102;-78
2024/03/17 04:39:26;;;;;;;33.40;17.20;;;;;;;7.22;100.00;100843.01;124227;1099;104284;-79
2024/03/17 04:41:57;;;;;;;33.43;17.50;;;;;;;7.22;100.00;100838.67;124194;1098;104251;-80
2024/03/17 04:44:29;;;;;;;30.77;14.80;;;;;;;7.20;100.00;100848.14;124276;1099;104392;-81
2024/03/17 04:47:00;;;;;;;28.63;14.90;;;;;;;7.19;100.00;100835.89;124260;1099;104322;-80
2024/03/17 04:49:31;;;;;;;27.60;14.50;;;;;;;7.19;100.00;100844.61;124163;1099;104267;-80
2024/03/17 04:52:02;;;;;;;29.20;14.90;;;;;;;7.20;100.00;100845.53;124176;1099;104242;-79
2024/03/17 04:54:35;;;;;;;27.55;13.40;;;;;;;7.20;100.00;100843.81;124193;1099;104341;-79
2024/03/17 04:57:06;;;;;;;27.17;13.63;;;;;;;7.17;100.00;100837.53;124209;1099;104358;-80
2024/03/17 04:59:38;;;;;;;27.85;13.75;;;;;;;7.15;100.00;100839.14;124091;1099;104380;-80
2024/03/17 05:02:09;;;;;;;29.40;13.53;;;;;;;7.14;100.00;100842.59;124229;1099;104341;-80
2024/03/17 05:04:42;;;;;;;26.43;12.90;;;;;;;7.15;100.00;100844.36;124266;1098;104258;-79
2024/03/17 05:07:13;;;;;;;29.03;13.87;;;;;;;7.12;100.00;100845.11;124437;1099;104241;-80
2024/03/17 05:09:45;;;;;;;30.43;13.47;;;;;;;7.14;100.00;100833.03;124316;1099;104459;-80
2024/03/17 05:12:16;;;;;;;28.40;12.93;;;;;;;7.16;100.00;100839.22;124156;1099;104325;-80
2024/03/17 05:14:47;;;;;;;27.30;13.17;;;;;;;7.18;100.00;100839.31;124235;1099;104268;-79
2024/03/17 05:17:18;;;;;;;27.87;13.67;;;;;;;7.19;100.00;100833.28;123764;1099;104280;-79
2024/03/17 05:19:49;;;;;;;24.90;12.50;;;;;;;7.22;100.00;100838.67;124322;1099;104820;-79
2024/03/17 05:22:21;;;;;;;24.33;11.77;;;;;;;7.24;100.00;100833.53;124241;1099;104239;-79
2024/03/17 05:24:53;;;;;;;26.23;12.63;;;;;;;7.26;100.00;100838.04;124073;1099;104262;-80
2024/03/17 05:27:24;;;;;;;25.17;12.40;;;;;;;7.28;100.00;100836.40;124288;1099;104340;-80
2024/03/17 05:29:56;;;;;;;25.43;12.00;;;;;;;7.30;100.00;100839.98;124259;1098;104220;-80
2024/03/17 05:32:27;;;;;;;25.13;11.73;;;;;;;7.32;100.00;100837.45;124506;1099;104236;-81
2024/03/17 05:34:59;;;;;;;26.53;12.57;;;;;;;7.33;100.00;100834.03;124250;1099;104431;-80
2024/03/17 05:37:30;;;;;;;23.47;12.07;;;;;;;7.36;100.00;100831.59;124156;1099;104640;-82
2024/03/17 05:40:02;;;;;;;25.00;11.85;;;;;;;7.40;100.00;100840.48;123834;1099;104342;-79
2024/03/17 05:42:33;;;;;;;25.47;12.57;;;;;;;7.45;100.00;100839.92;123837;1099;104814;-79
2024/03/17 05:45:04;;;;;;;25.60;11.77;;;;;;;7.52;100.00;100851.58;123806;1100;104463;-80
2024/03/17 05:47:36;;;;;;;27.80;11.87;;;;;;;7.55;100.00;100842.19;124044;1099;104438;-80
2024/03/17 05:50:08;;;;;;;24.87;11.60;;;;;;;7.57;100.00;100847.49;124105;1099;104341;-80
2024/03/17 05:52:40;;;;;;;25.17;11.83;;;;;;;7.62;100.00;100843.44;124190;1099;104268;-80
2024/03/17 05:55:11;;;;;;;27.63;12.80;;;;;;;7.62;100.00;100846.05;123966;1099;104376;-79
2024/03/17 05:57:42;;;;;;;26.67;12.73;;;;;;;7.63;100.00;100839.98;124206;1099;104360;-79
2024/03/17 06:00:16;;;;;;;25.03;12.00;;;;;;;7.69;100.00;100845.53;124336;1099;104274;-79
2024/03/17 06:02:48;;;;;;;25.37;12.30;;;;;;;7.68;100.00;100850.68;124138;1099;104296;-79
2024/03/17 06:05:19;;;;;;;24.37;11.97;;;;;;;7.72;100.00;100850.03;124314;1099;104267;-80
2024/03/17 06:07:51;;;;;;;27.67;13.27;;;;;;;7.80;100.00;100848.71;124157;1099;104492;-79
2024/03/17 06:10:24;;;;;;;27.27;13.53;;;;;;;7.80;100.00;100846.09;124668;1099;104198;-80
2024/03/17 06:12:56;;;;;;;27.67;13.37;;;;;;;7.85;100.00;100836.81;124284;1099;104214;-80
2024/03/17 06:15:27;;;;;;;26.70;13.13;;;;;;;7.89;100.00;100838.74;123952;1099;104389;-80
2024/03/17 06:18:01;;;;;;;28.23;13.63;;;;;;;7.96;100.00;100834.72;124062;1099;104332;-79
2024/03/17 06:20:32;;;;;;;28.60;13.53;;;;;;;8.04;100.00;100836.03;124338;1099;104258;-80
2024/03/17 06:23:04;;;;;;;29.87;14.77;;;;;;;8.13;100.00;100832.97;124541;1099;104313;-80
2024/03/17 06:25:41;;;;;;;28.97;14.27;;;;;;;8.24;100.00;100836.13;124392;1099;117847;-79
2024/03/17 06:28:14;;;;;;;27.30;14.07;;;;;;;8.27;100.00;100834.59;124325;1099;104299;-79
2024/03/17 06:30:48;;;;;;;28.87;14.60;;;;;;;8.33;100.00;100830.48;124356;1099;104233;-80
2024/03/17 06:33:20;;;;;;;28.80;14.30;;;;;;;8.42;100.00;100836.17;124101;1099;104274;-79
2024/03/17 06:35:51;;;;;;;30.20;16.17;;;;;;;8.59;100.00;100842.27;124585;1099;104228;-80
2024/03/17 06:38:25;;;;;;;33.40;17.23;;;;;;;8.77;100.00;100843.17;124060;1099;104294;-80
2024/03/17 06:40:56;;;;;;;31.82;16.82;;;;;;;8.93;100.00;100847.41;124225;1099;104354;-79
2024/03/17 06:43:27;;;;;;;33.43;17.90;;;;;;;9.02;100.00;100851.28;124230;1099;104401;-79
2024/03/17 06:46:00;;;;;;;33.23;17.07;;;;;;;9.04;100.00;100852.24;124178;1099;104296;-79
2024/03/17 06:48:32;;;;;;;33.07;17.47;;;;;;;9.08;100.00;100856.81;124294;1099;104297;-79
2024/03/17 06:51:05;;;;;;;33.20;17.63;;;;;;;9.14;100.00;100851.87;124499;1099;104411;-79
2024/03/17 06:53:36;;;;;;;33.53;17.60;;;;;;;9.16;100.00;100852.83;124273;1099;104367;-80
2024/03/17 06:56:09;;;;;;;34.20;17.27;;;;;;;9.20;100.00;100849.54;123957;1099;104242;-80
2024/03/17 06:58:40;;;;;;;31.37;17.23;;;;;;;9.28;100.00;100849.89;124294;1099;104239;-80
2024/03/17 07:01:12;;;;;;;31.83;17.03;;;;;;;9.33;100.00;100844.06;124541;1099;104220;-80
2024/03/17 07:03:43;;;;;;;33.93;18.40;;;;;;;9.44;100.00;100848.88;124708;1099;104230;-80
2024/03/17 07:06:14;;;;;;;33.50;17.83;;;;;;;9.49;99.86;100842.11;124665;1099;104287;-79
2024/03/17 07:08:45;;;;;;;31.27;16.27;;;;;;;9.54;99.80;100840.63;124595;1099;104294;-80
2024/03/17 07:11:17;;;;;;;28.83;15.03;;;;;;;9.64;99.88;100834.94;124689;1099;104276;-80
2024/03/17 07:13:50;;;;;;;29.43;14.37;;;;;;;9.73;99.00;100839.71;124623;1099;102003;-78
2024/03/17 07:16:24;;;;;;;30.60;15.80;;;;;;;9.74;99.82;100845.84;124786;1099;104163;-79
2024/03/17 07:18:56;;;;;;;29.27;15.10;;;;;;;9.85;100.00;100840.26;123942;1099;104325;-80
2024/03/17 07:21:27;;;;;;;27.93;14.53;;;;;;;9.93;99.77;100827.48;124256;1098;104245;-80
2024/03/17 07:23:59;;;;;;;28.10;14.37;;;;;;;9.99;98.74;100835.62;124524;1098;104364;-80
2024/03/17 07:26:33;;;;;;;31.27;15.00;;;;;;;10.04;99.43;100830.58;124091;1099;104437;-78
2024/03/17 07:29:05;;;;;;;28.63;14.47;;;;;;;10.19;100.00;100835.56;124061;1099;104756;-78
2024/03/17 07:31:38;;;;;;;25.50;13.80;;;;;;;10.31;99.08;100828.21;124138;1099;104367;-79
2024/03/17 07:34:10;;;;;;;27.30;14.90;;;;;;;10.41;99.21;100826.93;124159;1099;104246;-79
2024/03/17 07:36:41;;;;;;;26.40;13.77;;;;;;;10.55;99.91;100825.76;124236;1099;104294;-79
2024/03/17 07:39:13;;;;;;;27.37;14.63;;;;;;;10.64;99.19;100822.59;123856;1099;102064;-81
2024/03/17 07:41:44;;;;;;;27.60;13.93;;;;;;;10.71;98.89;100822.02;124188;1099;104469;-79
2024/03/17 07:44:15;;;;;;;29.07;15.37;;;;;;;10.77;98.02;100817.02;124338;1098;104987;-79
2024/03/17 07:46:46;;;;;;;29.40;15.43;;;;;;;10.88;98.97;100824.44;124048;1098;104232;-81
2024/03/17 07:49:18;;;;;;;29.33;14.90;;;;;;;10.94;97.82;100820.31;124264;1099;104265;-79
2024/03/17 07:51:49;;;;;;;27.93;15.20;;;;;;;11.01;97.85;100815.30;124559;1099;104265;-80
2024/03/17 07:54:21;;;;;;;28.10;14.57;;;;;;;11.08;97.02;100809.43;124764;1098;104223;-78
2024/03/17 07:56:52;;;;;;;28.53;15.47;;;;;;;11.11;96.38;100802.59;124876;1099;104236;-78
2024/03/17 07:59:23;;;;;;;26.77;14.03;;;;;;;11.29;98.16;100809.37;124194;1099;104267;-78
2024/03/17 08:01:54;;;;;;;26.90;14.70;;;;;;;11.55;98.47;100804.20;124211;1098;104239;-79
2024/03/17 08:04:25;;;;;;;31.00;16.13;;;;;;;11.67;97.72;100800.28;124184;1099;104277;-78
2024/03/17 08:06:58;;;;;;;27.80;14.87;;;;;;;11.79;97.71;100796.28;124053;1099;104287;-79
2024/03/17 08:09:30;;;;;;;29.07;15.40;;;;;;;11.92;95.94;100798.55;124193;1099;104191;-79
2024/03/17 08:12:04;;;;;;;28.97;15.63;;;;;;;11.88;94.50;100792.23;124978;1099;104271;-79
2024/03/17 08:14:35;;;;;;;30.90;16.80;;;;;;;11.85;95.20;100783.36;124094;1099;104307;-79
2024/03/17 08:17:07;;;;;;;27.60;15.43;;;;;;;11.81;95.04;100790.25;124534;1098;104341;-78
2024/03/17 08:19:38;;;;;;;29.97;16.23;;;;;;;11.79;94.85;100784.02;124453;1099;104408;-77
2024/03/17 08:22:10;;;;;;;30.10;16.03;;;;;;;11.77;94.04;100783.09;124858;1099;104348;-79
2024/03/17 08:24:41;;;;;;;33.83;17.70;;;;;;;11.78;93.50;100778.71;124538;1099;104252;-79
2024/03/17 08:27:13;;;;;;;30.73;17.10;;;;;;;11.79;94.91;100778.77;124445;1099;104269;-78
2024/03/17 08:29:44;;;;;;;32.60;17.40;;;;;;;11.86;94.35;100780.78;124524;1099;104219;-80
2024/03/17 08:32:17;;;;;;;29.87;16.63;;;;;;;11.90;93.32;100771.25;124580;1099;104248;-79
2024/03/17 08:34:50;;;;;;;34.83;17.87;;;;;;;11.98;93.98;100766.30;124179;1099;104512;-78
2024/03/17 08:37:25;;;;;;;35.40;17.60;;;;;;;12.09;93.95;100771.92;124482;1099;104389;-78
2024/03/17 08:39:56;;;;;;;33.17;19.10;;;;;;;12.09;91.95;100766.66;124925;1099;104271;-79
2024/03/17 08:42:28;;;;;;;33.60;18.30;;;;;;;12.08;91.44;100759.63;125292;1099;104172;-77
2024/03/17 08:44:59;;;;;;;34.37;20.07;;;;;;;12.08;91.36;100757.00;125267;1099;102239;-76
2024/03/17 08:47:30;;;;;;;34.43;19.13;;;;;;;12.12;92.21;100762.38;124392;1099;104453;-78
2024/03/17 08:50:03;;;;;;;32.90;19.07;;;;;;;12.20;92.51;100755.67;124033;1099;104278;-79
2024/03/17 08:52:35;;;;;;;32.63;18.40;;;;;;;12.22;91.91;100756.59;124479;1099;104162;-79
2024/03/17 08:55:10;;;;;;;31.80;18.13;;;;;;;12.27;90.53;100747.98;124798;1099;104239;-79
2024/03/17 08:57:41;;;;;;;32.77;18.63;;;;;;;12.38;91.00;100754.47;124496;1099;104344;-79
2024/03/17 09:00:16;;;;;;;31.50;18.17;;;;;;;12.44;91.59;100744.14;124481;1099;104753;-78
2024/03/17 09:02:48;;;;;;;30.07;17.10;;;;;;;12.40;91.39;100743.16;124495;1099;104220;-77
2024/03/17 09:05:19;;;;;;;34.10;17.73;;;;;;;12.44;90.23;100733.62;125518;1099;104276;-78
2024/03/17 09:07:50;;;;;;;32.60;17.67;;;;;;;12.50;90.19;100731.18;124920;1099;104198;-79
2024/03/17 09:10:21;;;;;;;30.60;17.23;;;;;;;12.55;90.72;100734.84;124003;1099;104399;-78
2024/03/17 09:12:52;;;;;;;30.17;17.70;;;;;;;12.59;89.02;100736.73;124648;1098;104264;-78
2024/03/17 09:15:24;;;;;;;31.65;17.65;;;;;;;12.62;90.51;100735.03;124284;1099;104321;-78
2024/03/17 09:17:55;;;;;;;32.70;18.20;;;;;;;12.65;88.87;100730.75;124722;1098;104265;-78
2024/03/17 09:20:26;;;;;;;32.70;17.40;;;;;;;12.80;89.01;100734.72;124529;1099;104163;-79
2024/03/17 09:22:58;;;;;;;31.83;17.90;;;;;;;12.95;89.32;100725.53;124457;1099;104303;-79
2024/03/17 09:25:29;;;;;;;30.63;16.03;;;;;;;13.08;89.16;100723.26;123937;1099;104341;-79
2024/03/17 09:28:01;;;;;;;32.00;18.03;;;;;;;13.10;87.91;100721.55;124577;1099;104264;-78
2024/03/17 09:30:32;;;;;;;32.10;18.03;;;;;;;13.06;88.16;100715.31;125124;1099;104185;-78
2024/03/17 09:33:04;;;;;;;33.47;17.17;;;;;;;13.06;85.63;100719.70;124995;1099;104165;-79
2024/03/17 09:35:35;;;;;;;34.47;19.07;;;;;;;12.97;87.06;100715.04;124651;1099;104260;-79
2024/03/17 09:38:07;;;;;;;33.10;18.20;;;;;;;12.94;86.58;100714.95;124670;1098;104252;-79
2024/03/17 09:40:38;;;;;;;33.05;18.75;;;;;;;13.02;87.32;100707.27;124709;1099;104347;-79
2024/03/17 09:43:13;;;;;;;33.77;19.43;;;;;;;13.04;86.52;100706.48;124621;1098;104245;-79
2024/03/17 09:45:44;;;;;;;36.10;20.73;;;;;;;13.13;87.71;100696.20;124588;1099;104273;-79
2024/03/17 09:48:19;;;;;;;33.87;20.07;;;;;;;13.21;84.96;100701.66;124515;1099;104309;-77
2024/03/17 09:50:54;;;;;;;34.83;19.73;;;;;;;13.23;84.09;100699.98;125085;1099;104406;-79
2024/03/17 09:53:28;;;;;;;38.07;22.43;;;;;;;13.22;84.63;100689.41;125008;1099;104585;-77
2024/03/17 09:56:02;;;;;;;35.93;21.17;;;;;;;13.33;85.07;100693.25;125140;1098;104277;-80
2024/03/17 09:58:34;;;;;;;36.00;21.50;;;;;;;13.41;84.82;100691.70;124979;1098;104309;-78
2024/03/17 10:01:06;;;;;;;32.20;19.23;;;;;;;13.45;84.17;100693.59;124542;1098;104399;-79
2024/03/17 10:03:45;;;;;;;37.33;21.77;;;;;;;13.47;83.56;100690.99;125191;1098;104411;-78
2024/03/17 10:06:18;;;;;;;35.23;20.87;;;;;;;13.50;84.71;100683.17;124752;1099;104360;-78
2024/03/17 10:08:51;;;;;;;34.47;21.57;;;;;;;13.52;84.29;100684.09;124656;1099;104289;-78
2024/03/17 10:11:23;;;;;;;35.67;19.80;;;;;;;13.57;83.37;100677.22;125233;1099;104245;-77
2024/03/17 10:14:04;;;;;;;32.13;18.87;;;;;;;13.56;84.48;100675.42;125286;1099;104324;-77
2024/03/17 10:16:37;;;;;;;32.50;18.77;;;;;;;13.60;83.78;100674.66;125557;1099;104265;-78
2024/03/17 10:19:14;;;;;;;34.00;19.37;;;;;;;13.59;82.67;100679.89;125609;1098;104277;-78
2024/03/17 10:21:48;;;;;;;32.73;18.30;;;;;;;13.68;83.67;100673.95;124441;1099;104245;-78
2024/03/17 10:24:22;;;;;;;31.70;17.62;;;;;;;13.77;82.25;100672.43;126024;1099;104226;-78
2024/03/17 10:26:55;;;;;;;29.83;16.97;;;;;;;13.92;84.38;100671.05;124561;1098;104318;-79
2024/03/17 10:29:30;;;;;;;30.37;15.60;;;;;;;14.10;83.37;100662.67;124812;1099;104351;-78
2024/03/17 10:32:03;;;;;;;27.50;15.47;;;;;;;14.09;82.31;100666.19;125178;1099;104280;-77
2024/03/17 10:34:35;;;;;;;30.63;16.67;;;;;;;14.09;82.32;100663.55;125055;1099;104245;-77
2024/03/17 10:37:11;;;;;;;27.87;15.13;;;;;;;14.20;82.57;100657.66;124714;1099;104318;-77
2024/03/17 10:39:44;;;;;;;28.93;16.60;;;;;;;14.17;81.70;100654.94;125237;1099;104313;-78
2024/03/17 10:42:23;;;;;;;29.77;15.90;;;;;;;14.20;82.73;100654.13;124396;1099;104411;-80
2024/03/17 10:44:55;;;;;;;31.67;17.07;;;;;;;14.21;81.14;100655.93;125092;1099;104214;-77
2024/03/17 10:47:30;;;;;;;30.90;16.77;;;;;;;14.34;80.87;100651.81;124821;1099;104351;-78
2024/03/17 10:50:03;;;;;;;29.60;16.03;;;;;;;14.38;82.40;100651.00;124192;1099;104217;-78
2024/03/17 10:52:38;;;;;;;27.67;14.85;;;;;;;14.37;80.75;100650.13;125110;1099;104370;-77
2024/03/17 10:55:12;;;;;;;28.73;15.03;;;;;;;14.35;81.15;100641.30;125005;1099;104258;-78
2024/03/17 10:57:48;;;;;;;33.50;16.93;;;;;;;14.57;80.74;100644.41;124640;1099;104254;-78
2024/03/17 11:00:22;;;;;;;28.00;15.60;;;;;;;14.71;80.67;100632.41;124620;1098;104220;-77
2024/03/17 11:02:55;;;;;;;28.35;15.05;;;;;;;14.72;80.25;100628.93;124630;1099;104329;-77
2024/03/17 11:05:29;;;;;;;28.47;15.07;;;;;;;14.63;77.46;100628.73;124687;1099;104179;-76
2024/03/17 11:08:02;;;;;;;26.85;14.25;;;;;;;14.56;78.19;100624.13;124511;1099;104277;-77
2024/03/17 11:10:36;;;;;;;29.87;14.90;;;;;;;14.58;79.58;100625.05;124537;1099;104312;-78
2024/03/17 11:13:23;;;;;;;26.07;14.28;;;;;;;14.64;78.79;100627.85;124447;1099;104204;-78
2024/03/17 11:15:55;;;;;;;28.47;15.43;;;;;;;14.79;78.27;100615.81;124816;1099;104249;-77